createdAt,value
2018-05-14T00:01:12.408Z,4.07
2018-05-14T00:03:40.004Z,4.47
2018-05-14T00:06:07.492Z,4.70
2018-05-14T00:08:35.015Z,4.80
2018-05-14T00:11:02.624Z,4.37
2018-05-14T00:13:30.172Z,4.80
2018-05-14T00:15:57.728Z,4.93
2018-05-14T00:18:25.260Z,4.80
2018-05-14T00:20:52.851Z,4.87
2018-05-14T00:23:20.412Z,4.77
2018-05-14T00:25:47.935Z,4.60
2018-05-14T00:28:15.467Z,4.60
2018-05-14T00:30:43.091Z,4.53
2018-05-14T00:33:10.647Z,4.90
2018-05-14T00:35:38.176Z,5.00
2018-05-14T00:38:05.707Z,4.87
2018-05-14T00:40:33.229Z,4.50
2018-05-14T00:43:00.755Z,5.07
2018-05-14T00:45:28.286Z,4.67
2018-05-14T00:47:55.895Z,4.57
2018-05-14T00:50:23.415Z,4.63
2018-05-14T00:52:50.960Z,4.60
2018-05-14T00:55:18.489Z,4.90
2018-05-14T00:57:46.013Z,4.87
2018-05-14T01:00:13.538Z,4.93
2018-05-14T01:02:41.684Z,5.07
2018-05-14T01:05:09.211Z,5.10
2018-05-14T01:07:36.801Z,4.80
2018-05-14T01:10:04.358Z,4.90
2018-05-14T01:12:31.878Z,5.07
2018-05-14T01:14:59.408Z,5.20
2018-05-14T01:17:26.935Z,5.00
2018-05-14T01:19:54.460Z,5.00
2018-05-14T01:22:21.985Z,4.57
2018-05-14T01:24:55.008Z,5.33
2018-05-14T01:27:22.536Z,5.10
2018-05-14T01:29:50.157Z,5.03
2018-05-14T01:32:17.693Z,5.20
2018-05-14T01:34:47.455Z,5.17
2018-05-14T01:37:15.090Z,5.13
2018-05-14T01:39:42.623Z,5.30
2018-05-14T01:42:10.144Z,5.37
2018-05-14T01:44:37.773Z,5.00
2018-05-14T01:47:05.293Z,5.37
2018-05-14T01:49:32.855Z,5.27
2018-05-14T01:52:00.383Z,5.57
2018-05-14T01:54:28.015Z,5.17
2018-05-14T01:56:55.578Z,4.93
2018-05-14T01:59:23.119Z,5.33
2018-05-14T02:01:50.690Z,5.17
2018-05-14T02:04:18.218Z,4.93
2018-05-14T02:06:45.818Z,5.20
2018-05-14T02:09:13.362Z,5.30
2018-05-14T02:11:40.933Z,5.17
2018-05-14T02:14:08.461Z,5.03
2018-05-14T02:16:36.039Z,5.00
2018-05-14T02:19:03.548Z,5.13
2018-05-14T02:21:31.161Z,5.10
2018-05-14T02:23:58.675Z,5.53
2018-05-14T02:26:26.224Z,5.30
2018-05-14T02:28:53.736Z,5.17
2018-05-14T02:31:21.283Z,5.40
2018-05-14T02:33:48.813Z,4.90
2018-05-14T02:36:16.410Z,5.50
2018-05-14T02:38:43.977Z,5.60
2018-05-14T02:41:11.537Z,6.07
2018-05-14T02:43:39.049Z,5.43
2018-05-14T02:46:06.569Z,5.60
2018-05-14T02:48:34.094Z,5.80
2018-05-14T02:51:01.689Z,5.20
2018-05-14T02:53:29.247Z,6.20
2018-05-14T02:55:56.803Z,5.67
2018-05-14T02:58:24.332Z,5.90
2018-05-14T03:00:51.852Z,5.60
2018-05-14T03:03:19.423Z,5.37
2018-05-14T03:05:46.977Z,5.23
2018-05-14T03:08:14.502Z,5.50
2018-05-14T03:10:42.027Z,5.93
2018-05-14T03:13:09.630Z,5.70
2018-05-14T03:15:37.157Z,5.63
2018-05-14T03:18:04.749Z,6.00
2018-05-14T03:20:32.260Z,5.20
2018-05-14T03:22:59.866Z,5.70
2018-05-14T03:25:27.412Z,5.30
2018-05-14T03:27:54.938Z,5.70
2018-05-14T03:30:22.567Z,5.90
2018-05-14T03:32:50.095Z,6.00
2018-05-14T03:35:17.627Z,5.73
2018-05-14T03:37:45.170Z,5.40
2018-05-14T03:40:12.714Z,5.67
2018-05-14T03:42:40.228Z,5.40
2018-05-14T03:45:07.756Z,5.97
2018-05-14T03:47:35.291Z,6.07
2018-05-14T03:50:02.923Z,5.73
2018-05-14T03:52:30.441Z,5.53
2018-05-14T03:54:57.969Z,6.30
2018-05-14T03:57:25.501Z,5.90
2018-05-14T04:00:04.760Z,5.90
2018-05-14T04:02:44.056Z,6.63
2018-05-14T04:05:20.157Z,5.80
2018-05-14T04:07:47.696Z,6.30
2018-05-14T04:10:15.220Z,6.07
2018-05-14T04:12:42.765Z,6.00
2018-05-14T04:15:10.293Z,5.67
2018-05-14T04:17:37.828Z,5.43
2018-05-14T04:20:05.361Z,6.13
2018-05-14T04:22:32.872Z,5.50
2018-05-14T04:25:00.407Z,6.27
2018-05-14T04:27:27.934Z,6.70
2018-05-14T04:29:55.453Z,5.97
2018-05-14T04:32:22.985Z,6.70
2018-05-14T04:34:50.525Z,6.43
2018-05-14T04:37:18.066Z,6.27
2018-05-14T04:39:45.592Z,6.93
2018-05-14T04:42:13.103Z,6.00
2018-05-14T04:44:40.665Z,6.30
2018-05-14T04:47:08.196Z,6.53
2018-05-14T04:49:35.737Z,6.50
2018-05-14T04:52:03.289Z,7.00
2018-05-14T04:54:30.813Z,6.67
2018-05-14T04:56:58.352Z,6.93
2018-05-14T04:59:25.865Z,7.30
2018-05-14T05:01:53.392Z,6.97
2018-05-14T05:04:20.919Z,7.53
2018-05-14T05:06:48.440Z,6.80
2018-05-14T05:09:15.972Z,7.23
2018-05-14T05:11:43.499Z,7.87
2018-05-14T05:14:11.060Z,7.40
2018-05-14T05:16:38.588Z,6.60
2018-05-14T05:19:06.148Z,8.00
2018-05-14T05:21:33.759Z,7.57
2018-05-14T05:24:01.293Z,7.00
2018-05-14T05:26:28.832Z,6.83
2018-05-14T05:28:56.357Z,7.63
2018-05-14T05:31:23.878Z,7.00
2018-05-14T05:33:51.407Z,6.80
2018-05-14T05:36:18.932Z,7.30
2018-05-14T05:38:46.490Z,7.27
2018-05-14T05:41:14.021Z,7.60
2018-05-14T05:43:41.543Z,7.57
2018-05-14T05:46:09.167Z,6.87
2018-05-14T05:48:36.716Z,7.13
2018-05-14T05:51:04.259Z,7.00
2018-05-14T05:53:31.800Z,6.73
2018-05-14T05:55:59.331Z,6.97
2018-05-14T05:58:26.842Z,6.97
2018-05-14T06:00:54.359Z,7.27
2018-05-14T06:03:21.984Z,7.27
2018-05-14T06:05:49.515Z,6.90
2018-05-14T06:08:17.067Z,7.53
2018-05-14T06:10:44.664Z,6.50
2018-05-14T06:13:12.211Z,6.47
2018-05-14T06:15:39.790Z,6.80
2018-05-14T06:18:07.314Z,7.13
2018-05-14T06:20:34.838Z,6.80
2018-05-14T06:23:02.352Z,6.80
2018-05-14T06:25:29.875Z,6.60
2018-05-14T06:27:57.393Z,6.37
2018-05-14T06:30:24.941Z,6.10
2018-05-14T06:32:52.468Z,6.00
2018-05-14T06:35:20.032Z,6.30
2018-05-14T06:37:47.562Z,6.03
2018-05-14T06:40:15.098Z,6.53
2018-05-14T06:42:42.623Z,6.30
2018-05-14T06:45:10.157Z,6.13
2018-05-14T06:47:37.701Z,6.50
2018-05-14T06:50:05.223Z,6.43
2018-05-14T06:52:32.831Z,6.20
2018-05-14T06:55:00.300Z,5.97
2018-05-14T06:57:27.899Z,6.13
2018-05-14T06:59:55.444Z,5.90
2018-05-14T07:02:22.968Z,6.10
2018-05-14T07:04:50.579Z,5.80
2018-05-14T07:07:18.096Z,6.13
2018-05-14T07:09:45.684Z,5.90
2018-05-14T07:12:13.226Z,5.90
2018-05-14T07:14:40.818Z,5.63
2018-05-14T07:17:08.347Z,5.53
2018-05-14T07:19:35.865Z,5.17
2018-05-14T07:22:03.504Z,5.97
2018-05-14T07:24:31.028Z,5.43
2018-05-14T07:26:58.555Z,5.33
2018-05-14T07:29:26.189Z,5.40
2018-05-14T07:31:53.840Z,5.18
2018-05-14T07:34:21.386Z,4.82
2018-05-14T07:36:48.928Z,5.57
2018-05-14T07:39:16.448Z,5.15
2018-05-14T07:41:43.979Z,4.87
2018-05-14T07:44:11.509Z,4.82
2018-05-14T07:46:39.033Z,5.00
2018-05-14T07:49:06.596Z,4.90
2018-05-14T07:51:34.218Z,5.28
2018-05-14T07:54:01.743Z,4.50
2018-05-14T07:56:29.338Z,4.55
2018-05-14T07:58:56.861Z,4.70
2018-05-14T08:01:24.396Z,3.95
2018-05-14T08:03:51.952Z,4.20
2018-05-14T08:06:19.485Z,3.83
2018-05-14T08:08:47.164Z,4.03
2018-05-14T08:11:14.711Z,3.35
2018-05-14T08:13:42.243Z,3.83
2018-05-14T08:16:09.767Z,3.47
2018-05-14T08:18:37.289Z,3.53
2018-05-14T08:21:04.822Z,3.45
2018-05-14T08:23:32.399Z,3.60
2018-05-14T08:25:59.924Z,3.60
2018-05-14T08:28:27.445Z,3.90
2018-05-14T08:30:54.969Z,3.37
2018-05-14T08:33:22.499Z,3.65
2018-05-14T08:35:50.061Z,3.30
2018-05-14T08:38:17.576Z,3.30
2018-05-14T08:40:45.129Z,3.20
2018-05-14T08:43:12.645Z,3.37
2018-05-14T08:45:40.232Z,2.87
2018-05-14T08:48:07.861Z,3.00
2018-05-14T08:50:35.356Z,2.87
2018-05-14T08:53:02.923Z,3.40
2018-05-14T08:55:30.452Z,2.80
2018-05-14T08:57:57.995Z,3.40
2018-05-14T09:00:25.512Z,3.17
2018-05-14T09:02:53.151Z,2.80
2018-05-14T09:05:20.676Z,2.97
2018-05-14T09:07:48.204Z,2.70
2018-05-14T09:10:15.833Z,3.00
2018-05-14T09:12:43.393Z,3.08
2018-05-14T09:15:10.919Z,2.95
2018-05-14T09:17:38.512Z,2.95
2018-05-14T09:20:06.036Z,2.65
2018-05-14T09:22:33.550Z,2.85
2018-05-14T09:25:01.192Z,2.80
2018-05-14T09:27:28.756Z,2.83
2018-05-14T09:29:56.317Z,3.10
2018-05-14T09:32:23.972Z,3.30
2018-05-14T09:34:51.533Z,2.95
2018-05-14T09:37:19.154Z,2.55
2018-05-14T09:39:46.652Z,2.90
2018-05-14T09:42:14.203Z,2.60
2018-05-14T09:44:41.728Z,3.05
2018-05-14T09:47:09.333Z,3.00
2018-05-14T09:49:36.851Z,2.85
2018-05-14T09:52:04.388Z,2.42
2018-05-14T09:54:31.909Z,2.60
2018-05-14T09:56:59.439Z,2.35
2018-05-14T09:59:26.959Z,2.25
2018-05-14T10:01:54.488Z,2.78
2018-05-14T10:04:22.003Z,2.62
2018-05-14T10:06:49.559Z,2.42
2018-05-14T10:09:17.151Z,2.70
2018-05-14T10:11:44.686Z,2.55
2018-05-14T10:14:12.361Z,2.90
2018-05-14T10:16:39.893Z,2.78
2018-05-14T10:19:07.440Z,2.75
2018-05-14T10:21:34.966Z,2.90
2018-05-14T10:24:02.527Z,2.50
2018-05-14T10:26:30.053Z,2.22
2018-05-14T10:28:57.578Z,2.47
2018-05-14T10:31:25.103Z,2.50
2018-05-14T10:33:52.633Z,2.58
2018-05-14T10:36:20.225Z,2.62
2018-05-14T10:38:47.752Z,2.67
2018-05-14T10:41:15.277Z,2.70
2018-05-14T10:43:42.837Z,2.70
2018-05-14T10:46:10.362Z,2.75
2018-05-14T10:48:37.878Z,2.90
2018-05-14T10:51:05.450Z,2.47
2018-05-14T10:53:32.968Z,2.78
2018-05-14T10:56:00.484Z,2.42
2018-05-14T10:58:28.017Z,3.10
2018-05-14T11:00:55.620Z,3.23
2018-05-14T11:03:23.148Z,3.13
2018-05-14T11:05:50.662Z,3.00
2018-05-14T11:08:18.359Z,2.73
2018-05-14T11:10:45.886Z,3.07
2018-05-14T11:13:13.453Z,3.20
2018-05-14T11:15:41.087Z,2.93
2018-05-14T11:18:08.603Z,3.07
2018-05-14T11:20:36.145Z,2.77
2018-05-14T11:23:03.688Z,2.63
2018-05-14T11:25:31.218Z,3.03
2018-05-14T11:27:58.780Z,3.23
2018-05-14T11:30:26.308Z,3.17
2018-05-14T11:32:53.853Z,3.03
2018-05-14T11:35:21.429Z,2.77
2018-05-14T11:37:49.247Z,3.20
2018-05-14T11:40:16.871Z,3.13
2018-05-14T11:42:44.744Z,3.90
2018-05-14T11:45:12.275Z,3.33
2018-05-14T11:47:39.828Z,3.17
2018-05-14T11:50:07.371Z,3.20
2018-05-14T11:52:34.890Z,2.93
2018-05-14T11:55:02.449Z,3.03
2018-05-14T11:57:30.010Z,3.10
2018-05-14T11:59:57.569Z,3.07
2018-05-14T12:02:25.129Z,3.20
2018-05-14T12:04:52.657Z,3.10
2018-05-14T12:07:20.217Z,3.07
2018-05-14T12:09:47.881Z,3.20
2018-05-14T12:12:15.500Z,2.90
2018-05-14T12:14:43.020Z,3.30
2018-05-14T12:17:10.549Z,3.37
2018-05-14T12:19:38.136Z,2.90
2018-05-14T12:22:05.712Z,3.37
2018-05-14T12:24:33.236Z,3.20
2018-05-14T12:27:00.785Z,3.00
2018-05-14T12:29:28.311Z,3.30
2018-05-14T12:31:55.852Z,3.30
2018-05-14T12:34:23.376Z,3.80
2018-05-14T12:36:50.901Z,3.30
2018-05-14T12:39:18.422Z,3.27
2018-05-14T12:41:45.934Z,3.13
2018-05-14T12:44:13.478Z,3.70
2018-05-14T12:46:41.006Z,3.37
2018-05-14T12:49:08.547Z,4.43
2018-05-14T12:51:36.082Z,3.77
2018-05-14T12:54:03.607Z,3.80
2018-05-14T12:56:31.149Z,3.30
2018-05-14T12:58:58.668Z,3.83
2018-05-14T13:01:26.240Z,3.73
2018-05-14T13:03:53.764Z,3.83
2018-05-14T13:06:21.300Z,3.73
2018-05-14T13:08:48.882Z,3.50
2018-05-14T13:11:16.399Z,3.77
2018-05-14T13:13:43.920Z,3.37
2018-05-14T13:16:11.441Z,3.87
2018-05-14T13:18:38.981Z,3.73
2018-05-14T13:21:06.497Z,4.00
2018-05-14T13:23:34.025Z,3.93
2018-05-14T13:26:01.555Z,3.93
2018-05-14T13:28:29.080Z,3.53
2018-05-14T13:30:56.628Z,4.20
2018-05-14T13:33:24.160Z,4.07
2018-05-14T13:35:51.692Z,3.70
2018-05-14T13:38:19.215Z,3.97
2018-05-14T13:40:46.748Z,4.03
2018-05-14T13:43:14.297Z,3.70
2018-05-14T13:45:41.832Z,4.17
2018-05-14T13:48:09.356Z,4.23
2018-05-14T13:50:36.881Z,4.33
2018-05-14T13:53:04.407Z,4.07
2018-05-14T13:55:31.930Z,4.00
2018-05-14T13:57:59.449Z,4.20
2018-05-14T14:00:26.967Z,3.90
2018-05-14T14:02:54.481Z,4.27
2018-05-14T14:05:22.004Z,4.27
2018-05-14T14:07:49.531Z,4.50
2018-05-14T14:10:17.054Z,4.30
2018-05-14T14:12:44.600Z,4.63
2018-05-14T14:15:12.111Z,4.07
2018-05-14T14:17:39.668Z,4.20
2018-05-14T14:20:07.193Z,4.30
2018-05-14T14:22:34.762Z,4.87
2018-05-14T14:25:02.327Z,4.17
2018-05-14T14:27:29.945Z,3.97
2018-05-14T14:29:57.500Z,4.13
2018-05-14T14:32:25.028Z,3.90
2018-05-14T14:34:52.552Z,3.83
2018-05-14T14:37:20.177Z,4.47
2018-05-14T14:39:47.753Z,4.17
2018-05-14T14:42:15.403Z,4.17
2018-05-14T14:44:42.927Z,4.10
2018-05-14T14:47:10.523Z,3.93
2018-05-14T14:49:38.078Z,3.90
2018-05-14T14:52:05.605Z,4.17
2018-05-14T14:54:33.158Z,4.10
2018-05-14T14:57:00.692Z,4.23
2018-05-14T14:59:28.237Z,3.73
2018-05-14T15:01:55.873Z,3.30
2018-05-14T15:04:23.414Z,4.47
2018-05-14T15:06:50.964Z,3.80
2018-05-14T15:09:18.488Z,3.80
2018-05-14T15:11:46.008Z,4.00
2018-05-14T15:14:13.535Z,3.90
2018-05-14T15:16:41.079Z,4.27
2018-05-14T15:19:08.636Z,4.10
2018-05-14T15:21:36.264Z,3.87
2018-05-14T15:24:03.931Z,4.00
2018-05-14T15:26:31.453Z,4.57
2018-05-14T15:28:59.017Z,4.37
2018-05-14T15:31:26.543Z,4.20
2018-05-14T15:33:54.163Z,3.87
2018-05-14T15:36:21.713Z,4.00
2018-05-14T15:38:49.242Z,3.70
2018-05-14T15:41:16.786Z,4.43
2018-05-14T15:43:44.341Z,3.80
2018-05-14T15:46:11.888Z,4.23
2018-05-14T15:48:39.403Z,3.33
2018-05-14T15:51:06.937Z,4.10
2018-05-14T15:53:34.494Z,4.10
2018-05-14T15:56:02.014Z,4.07
2018-05-14T15:58:29.650Z,4.30
2018-05-14T16:00:57.219Z,4.03
2018-05-14T16:03:24.751Z,4.10
2018-05-14T16:05:52.282Z,3.97
2018-05-14T16:08:19.808Z,3.90
2018-05-14T16:10:47.344Z,4.10
2018-05-14T16:13:14.926Z,3.97
2018-05-14T16:15:42.464Z,3.70
2018-05-14T16:18:10.045Z,3.50
2018-05-14T16:20:37.604Z,3.70
2018-05-14T16:23:05.128Z,3.57
2018-05-14T16:25:32.724Z,4.30
2018-05-14T16:28:00.264Z,3.83
2018-05-14T16:30:27.792Z,3.80
2018-05-14T16:32:55.308Z,3.50
2018-05-14T16:35:22.863Z,3.97
2018-05-14T16:37:50.394Z,3.30
2018-05-14T16:40:17.908Z,3.60
2018-05-14T16:42:45.558Z,3.63
2018-05-14T16:45:13.107Z,3.90
2018-05-14T16:47:40.634Z,3.33
2018-05-14T16:50:08.148Z,3.50
2018-05-14T16:52:35.678Z,3.37
2018-05-14T16:55:03.237Z,3.60
2018-05-14T16:57:30.768Z,3.47
2018-05-14T16:59:58.300Z,3.93
2018-05-14T17:02:25.845Z,3.90
2018-05-14T17:04:53.392Z,3.33
2018-05-14T17:07:20.917Z,3.20
2018-05-14T17:09:48.464Z,3.60
2018-05-14T17:12:16.060Z,3.10
2018-05-14T17:14:43.585Z,3.50
2018-05-14T17:17:11.099Z,3.50
2018-05-14T17:19:38.631Z,3.50
2018-05-14T17:22:06.176Z,3.37
2018-05-14T17:24:33.706Z,3.70
2018-05-14T17:27:01.236Z,3.53
2018-05-14T17:29:28.772Z,3.80
2018-05-14T17:31:56.300Z,3.17
2018-05-14T17:34:23.819Z,3.17
2018-05-14T17:36:51.347Z,3.60
2018-05-14T17:39:18.877Z,4.00
2018-05-14T17:41:46.416Z,3.43
2018-05-14T17:44:13.945Z,3.20
2018-05-14T17:46:41.463Z,3.43
2018-05-14T17:49:08.983Z,4.13
2018-05-14T17:51:36.504Z,3.63
2018-05-14T17:54:04.033Z,3.50
2018-05-14T17:56:31.547Z,3.87
2018-05-14T17:58:59.079Z,3.80
2018-05-14T18:01:26.977Z,3.90
2018-05-14T18:03:54.510Z,4.20
2018-05-14T18:06:22.032Z,3.70
2018-05-14T18:08:49.548Z,3.77
2018-05-14T18:11:17.085Z,3.80
2018-05-14T18:13:44.615Z,4.20
2018-05-14T18:16:12.155Z,4.00
2018-05-14T18:18:39.684Z,3.43
2018-05-14T18:21:12.112Z,3.93
2018-05-14T18:23:45.224Z,4.03
2018-05-14T18:26:17.671Z,3.77
2018-05-14T18:28:49.030Z,3.80
2018-05-14T18:31:22.322Z,4.50
2018-05-14T18:33:49.820Z,3.80
2018-05-14T18:36:20.036Z,4.03
2018-05-14T18:38:47.571Z,3.90
2018-05-14T18:41:15.099Z,4.17
2018-05-14T18:43:42.740Z,4.27
2018-05-14T18:46:10.367Z,4.40
2018-05-14T18:48:37.891Z,4.13
2018-05-14T18:51:05.430Z,4.53
2018-05-14T18:53:32.976Z,4.00
2018-05-14T18:56:00.500Z,4.30
2018-05-14T18:58:28.066Z,4.33
2018-05-14T19:00:55.590Z,3.97
2018-05-14T19:03:23.115Z,4.60
2018-05-14T19:05:50.708Z,4.40
2018-05-14T19:08:18.304Z,4.33
2018-05-14T19:10:51.575Z,4.33
2018-05-14T19:13:19.264Z,4.50
2018-05-14T19:15:52.375Z,5.00
2018-05-14T19:18:20.016Z,4.70
2018-05-14T19:20:47.543Z,4.80
2018-05-14T19:23:20.786Z,4.73
2018-05-14T19:25:48.308Z,4.90
2018-05-14T19:31:19.729Z,4.60
2018-05-14T19:33:52.895Z,4.70
2018-05-14T19:36:20.404Z,4.90
2018-05-14T19:38:47.928Z,5.70
2018-05-14T19:41:15.469Z,5.30
2018-05-14T19:43:42.979Z,5.67
2018-05-14T19:46:10.509Z,4.87
2018-05-14T19:48:38.038Z,4.40
2018-05-14T19:51:05.556Z,4.40
2018-05-14T19:53:33.086Z,4.70
2018-05-14T19:56:00.623Z,4.67
2018-05-14T19:58:28.144Z,4.40
2018-05-14T20:00:55.672Z,4.40
2018-05-14T20:03:23.243Z,5.05
2018-05-14T20:05:50.792Z,5.10
2018-05-14T20:08:18.394Z,4.87
2018-05-14T20:10:45.937Z,4.23
2018-05-14T20:13:13.459Z,4.33
2018-05-14T20:15:41.922Z,4.73
2018-05-14T20:18:09.449Z,4.90
2018-05-14T20:20:36.968Z,4.23
2018-05-14T20:23:04.491Z,4.67
2018-05-14T20:25:32.012Z,4.93
2018-05-14T20:27:59.557Z,4.80
2018-05-14T20:30:27.077Z,5.60
2018-05-14T20:32:54.605Z,5.10
2018-05-14T20:35:22.120Z,4.93
2018-05-14T20:37:49.658Z,5.03
2018-05-14T20:40:17.177Z,5.27
2018-05-14T20:42:44.702Z,5.27
2018-05-14T20:45:12.233Z,5.00
2018-05-14T20:47:39.760Z,5.07
2018-05-14T20:50:07.285Z,4.67
2018-05-14T20:52:34.832Z,4.80
2018-05-14T20:55:02.363Z,4.83
2018-05-14T20:57:29.883Z,4.40
2018-05-14T20:59:57.406Z,5.03
2018-05-14T21:02:24.947Z,5.07
2018-05-14T21:04:52.491Z,4.90
2018-05-14T21:07:20.016Z,4.77
2018-05-14T21:09:47.545Z,4.60
2018-05-14T21:12:15.077Z,4.90
2018-05-14T21:14:42.625Z,4.67
2018-05-14T21:17:10.157Z,5.10
2018-05-14T21:19:37.687Z,5.10
2018-05-14T21:22:05.233Z,5.20
2018-05-14T21:24:32.756Z,4.97
2018-05-14T21:27:00.273Z,5.23
2018-05-14T21:29:27.808Z,5.83
2018-05-14T21:31:55.321Z,4.60
2018-05-14T21:34:22.864Z,4.73
2018-05-14T21:36:50.441Z,5.10
2018-05-14T21:39:17.965Z,5.20
2018-05-14T21:41:45.489Z,4.90
2018-05-14T21:44:13.024Z,4.90
2018-05-14T21:46:40.544Z,5.30
2018-05-14T21:49:08.072Z,5.50
2018-05-14T21:51:35.606Z,5.17
2018-05-14T21:54:03.128Z,4.97
2018-05-14T21:56:30.679Z,5.70
2018-05-14T21:58:58.231Z,5.30
2018-05-14T22:01:25.772Z,5.57
2018-05-14T22:03:53.297Z,4.97
2018-05-14T22:06:20.817Z,4.90
2018-05-14T22:08:48.359Z,5.57
2018-05-14T22:11:15.904Z,5.60
2018-05-14T22:13:43.443Z,5.37
2018-05-14T22:16:10.985Z,5.13
2018-05-14T22:18:38.508Z,5.00
2018-05-14T22:21:06.028Z,5.10
2018-05-14T22:23:33.557Z,5.37
2018-05-14T22:26:01.093Z,5.67
2018-05-14T22:28:28.623Z,5.40
2018-05-14T22:30:56.140Z,5.70
2018-05-14T22:33:23.701Z,5.37
2018-05-14T22:35:51.242Z,5.10
2018-05-14T22:38:18.772Z,5.50
2018-05-14T22:40:46.294Z,5.60
2018-05-14T22:43:13.812Z,5.40
2018-05-14T22:45:41.359Z,6.07
2018-05-14T22:48:08.899Z,5.73
2018-05-14T22:50:36.424Z,5.13
2018-05-14T22:53:03.957Z,5.80
2018-05-14T22:55:31.482Z,5.50
2018-05-14T22:57:59.000Z,5.40
2018-05-14T23:00:27.439Z,5.73
2018-05-14T23:02:54.978Z,5.73
2018-05-14T23:05:22.520Z,5.67
2018-05-14T23:07:50.046Z,5.40
2018-05-14T23:10:17.593Z,6.20
2018-05-14T23:12:45.111Z,5.57
2018-05-14T23:15:12.637Z,5.97
2018-05-14T23:17:40.163Z,6.20
2018-05-14T23:20:07.707Z,5.73
2018-05-14T23:22:44.035Z,5.30
2018-05-14T23:25:11.571Z,6.23
2018-05-14T23:27:39.097Z,5.73
2018-05-14T23:30:06.632Z,6.53
2018-05-14T23:32:34.151Z,6.33
2018-05-14T23:35:01.675Z,5.93
2018-05-14T23:37:29.206Z,6.23
2018-05-14T23:39:56.725Z,6.20
2018-05-14T23:42:24.255Z,5.97
2018-05-14T23:44:51.791Z,5.40
2018-05-14T23:47:19.315Z,6.47
2018-05-14T23:49:46.845Z,5.87
2018-05-14T23:52:14.366Z,5.90
2018-05-14T23:54:41.880Z,6.03
2018-05-14T23:57:09.396Z,6.03
2018-05-14T23:59:36.907Z,5.70
